Time;durP1;ratioP1;P1;durP2;ratioP2;P2;SDS_P1;SDS_P2;PMS_P1;PMS_P2;Temp;Humidity;BMP_temperature;BMP_pressure;BME280_temperature;BME280_humidity;BME280_pressure;Samples;Min_cycle;Max_cycle;Signal;HPM_P1;HPM_P2
2022/04/10 00:01:12;;;;;;;5.07;4.03;;;;;;;4.43;nan;99843.22;4999571;28;20957;-74
2022/04/10 00:03:38;;;;;;;4.40;3.00;;;;;;;4.40;nan;99846.78;4989592;28;20234;-74
2022/04/10 00:06:03;;;;;;;3.70;2.87;;;;;;;4.43;nan;99848.41;4989485;28;20700;-74
2022/04/10 00:08:29;;;;;;;4.53;4.13;;;;;;;4.43;nan;99849.25;4989224;28;20313;-74
2022/04/10 00:10:54;;;;;;;3.53;2.83;;;;;;;4.43;nan;99857.06;4988353;28;20203;-74
2022/04/10 00:13:20;;;;;;;5.90;3.10;;;;;;;4.40;nan;99848.50;4988890;28;20460;-74
2022/04/10 00:15:45;;;;;;;5.97;4.30;;;;;;;4.37;nan;99852.03;4988970;28;20231;-74
2022/04/10 00:18:11;;;;;;;7.30;4.67;;;;;;;4.37;nan;99856.41;4987034;28;20218;-74
2022/04/10 00:20:37;;;;;;;7.40;5.60;;;;;;;4.36;nan;99858.16;4987828;28;20454;-74
2022/04/10 00:23:04;;;;;;;8.07;6.27;;;;;;;4.36;nan;99852.13;4987032;28;20250;-74
2022/04/10 00:25:30;;;;;;;4.85;3.95;;;;;;;4.35;nan;99850.44;4989321;28;20599;-74
2022/04/10 00:27:55;;;;;;;4.17;3.77;;;;;;;4.24;nan;99852.53;4988236;28;20234;-74
2022/04/10 00:30:21;;;;;;;3.83;3.43;;;;;;;4.11;nan;99850.34;4988654;28;20616;-74
2022/04/10 00:32:46;;;;;;;4.30;3.53;;;;;;;4.07;nan;99851.34;4988391;28;20236;-74
2022/04/10 00:35:12;;;;;;;4.90;4.40;;;;;;;4.10;nan;99851.22;4986758;28;20227;-74
2022/04/10 00:37:38;;;;;;;5.07;4.43;;;;;;;4.11;nan;99852.09;4987829;28;20516;-74
2022/04/10 00:40:06;;;;;;;4.88;3.72;;;;;;;4.12;nan;99854.63;4998969;28;20227;-74
2022/04/10 00:42:32;;;;;;;4.07;3.45;;;;;;;4.07;nan;99850.50;4998442;28;20269;-74
2022/04/10 00:44:58;;;;;;;4.78;3.97;;;;;;;3.99;nan;99850.75;4985297;28;20235;-73
2022/04/10 00:47:23;;;;;;;6.00;3.57;;;;;;;3.94;nan;99850.91;4989895;28;20211;-74
2022/04/10 00:49:49;;;;;;;6.50;4.00;;;;;;;3.93;nan;99856.16;4988014;28;20951;-74
2022/04/10 00:52:15;;;;;;;4.90;3.10;;;;;;;3.91;nan;99865.72;4986814;28;20252;-74
2022/04/10 00:54:41;;;;;;;9.88;3.30;;;;;;;3.87;nan;99874.53;4996000;28;20490;-74
2022/04/10 00:57:07;;;;;;;5.10;4.10;;;;;;;3.82;nan;99873.84;4987108;28;20326;-74
2022/04/10 00:59:32;;;;;;;4.25;3.85;;;;;;;3.76;nan;99877.47;4986826;28;20631;-74
2022/04/10 01:01:58;;;;;;;5.97;3.97;;;;;;;3.71;nan;99869.81;4987067;28;20496;-73
2022/04/10 01:04:23;;;;;;;4.67;3.70;;;;;;;3.63;nan;99874.41;4980906;28;20833;-74
2022/04/10 01:06:54;;;;;;;6.10;4.00;;;;;;;3.60;nan;99876.25;4998685;28;20249;-74
2022/04/10 01:09:20;;;;;;;6.35;3.35;;;;;;;3.62;nan;99879.63;4998055;28;20226;-73
2022/04/10 01:11:46;;;;;;;7.15;3.10;;;;;;;3.59;nan;99877.97;5002590;28;20203;-73
2022/04/10 01:14:13;;;;;;;3.93;3.30;;;;;;;3.51;nan;99879.97;4985785;28;21446;-74
2022/04/10 01:16:39;;;;;;;2.95;2.55;;;;;;;3.42;nan;99882.84;4977625;28;21158;-74
2022/04/10 01:19:06;;;;;;;6.38;3.25;;;;;;;3.32;nan;99883.13;4997604;28;20913;-73
2022/04/10 01:21:40;;;;;;;5.75;3.45;;;;;;;3.23;nan;99880.78;4998370;28;20210;-73
2022/04/10 01:24:08;;;;;;;3.63;3.03;;;;;;;3.16;nan;99881.88;4986709;28;20206;-74
2022/04/10 01:26:34;;;;;;;4.18;3.20;;;;;;;3.15;nan;99887.94;5003872;28;20543;-74
2022/04/10 01:29:04;;;;;;;3.00;2.70;;;;;;;3.17;nan;99893.09;4987862;28;20195;-74
2022/04/10 01:31:34;;;;;;;5.75;4.10;;;;;;;3.22;nan;99891.22;5002359;28;20199;-74
2022/04/10 01:34:03;;;;;;;6.22;3.83;;;;;;;3.25;nan;99891.97;5001882;28;20272;-73
2022/04/10 01:36:30;;;;;;;4.95;4.40;;;;;;;3.25;nan;99894.59;5000515;28;20227;-73
2022/04/10 01:38:57;;;;;;;5.50;4.30;;;;;;;3.23;nan;99883.38;5006650;28;20555;-74
2022/04/10 01:41:25;;;;;;;5.13;4.15;;;;;;;3.21;nan;99890.34;5004064;28;20314;-74
2022/04/10 01:43:53;;;;;;;12.13;7.32;;;;;;;3.21;nan;99885.16;5006482;28;20225;-74
2022/04/10 01:46:19;;;;;;;8.30;5.47;;;;;;;3.21;nan;99890.34;5003493;28;20342;-74
2022/04/10 01:48:45;;;;;;;10.15;6.50;;;;;;;3.18;nan;99889.59;5005031;28;20772;-74
2022/04/10 01:51:11;;;;;;;8.17;7.13;;;;;;;3.09;nan;99880.34;4989688;28;20347;-74
2022/04/10 01:53:37;;;;;;;13.65;9.15;;;;;;;3.02;nan;99884.84;5006451;28;20515;-74
2022/04/10 01:56:05;;;;;;;14.55;9.27;;;;;;;2.94;nan;99888.56;4987653;28;20224;-73
2022/04/10 01:58:33;;;;;;;14.32;8.25;;;;;;;2.90;nan;99890.41;5006516;28;20262;-75
2022/04/10 02:01:04;;;;;;;9.65;5.50;;;;;;;2.81;nan;99882.88;4988744;28;20219;-74
2022/04/10 02:03:29;;;;;;;9.45;6.45;;;;;;;2.71;nan;99884.84;4988385;28;20238;-74
2022/04/10 02:05:55;;;;;;;7.50;6.03;;;;;;;2.69;nan;99883.19;5001446;28;20369;-74
2022/04/10 02:08:21;;;;;;;4.07;3.78;;;;;;;2.65;nan;99883.28;4994679;28;20208;-75
2022/04/10 02:10:47;;;;;;;6.25;4.75;;;;;;;2.61;nan;99873.88;4995762;28;20215;-72
2022/04/10 02:13:13;;;;;;;8.40;5.90;;;;;;;2.58;nan;99873.09;4997384;28;20203;-75
2022/04/10 02:15:39;;;;;;;8.70;6.27;;;;;;;2.50;nan;99875.91;5006211;28;20231;-75
2022/04/10 02:18:06;;;;;;;10.90;6.20;;;;;;;2.42;nan;99873.50;4996780;28;20218;-75
2022/04/10 02:20:32;;;;;;;5.18;4.43;;;;;;;2.40;nan;99877.91;5013165;28;20581;-74
2022/04/10 02:22:58;;;;;;;5.57;3.88;;;;;;;2.38;nan;99871.91;5013838;28;20215;-73
2022/04/10 02:25:24;;;;;;;5.97;4.77;;;;;;;2.39;nan;99877.94;4985472;28;20235;-72
2022/04/10 02:27:49;;;;;;;5.23;3.83;;;;;;;2.41;nan;99869.22;4992171;28;20552;-73
2022/04/10 02:30:16;;;;;;;4.87;3.90;;;;;;;2.43;nan;99880.41;4986944;28;20214;-76
2022/04/10 02:32:42;;;;;;;7.32;3.90;;;;;;;2.45;nan;99885.53;5009869;28;20268;-74
2022/04/10 02:35:11;;;;;;;5.82;4.43;;;;;;;2.46;nan;99882.06;5006241;28;20227;-72
2022/04/10 02:37:37;;;;;;;7.93;3.83;;;;;;;2.43;nan;99883.00;4988438;28;20211;-75
2022/04/10 02:40:04;;;;;;;4.10;3.70;;;;;;;2.40;nan;99888.28;4986817;28;20318;-74
2022/04/10 02:42:33;;;;;;;4.85;3.63;;;;;;;2.41;nan;99891.72;4998299;28;20219;-72
2022/04/10 02:44:59;;;;;;;4.10;3.67;;;;;;;2.40;nan;99890.88;4999976;28;20230;-72
2022/04/10 02:47:25;;;;;;;5.80;4.15;;;;;;;2.40;nan;99885.69;4988067;28;20565;-73
2022/04/10 02:49:53;;;;;;;4.43;4.07;;;;;;;2.42;nan;99893.41;4994900;28;20306;-72
2022/04/10 02:52:24;;;;;;;7.32;5.20;;;;;;;2.42;nan;99902.03;4997285;28;20234;-75
2022/04/10 02:54:57;;;;;;;7.18;3.75;;;;;;;2.43;nan;99895.97;4999851;28;20249;-72
2022/04/10 02:57:32;;;;;;;6.40;4.60;;;;;;;2.43;nan;99895.97;4997766;28;20264;-75
2022/04/10 02:59:58;;;;;;;11.15;6.00;;;;;;;2.42;nan;99899.44;5011942;28;20648;-72
2022/04/10 03:02:28;;;;;;;13.70;11.32;;;;;;;2.40;nan;99896.06;4998281;28;20992;-73
2022/04/10 03:04:59;;;;;;;14.05;9.38;;;;;;;2.31;nan;99895.41;5009549;28;21157;-74
2022/04/10 03:07:26;;;;;;;15.38;11.02;;;;;;;2.20;nan;99898.28;4998736;28;20203;-73
2022/04/10 03:09:52;;;;;;;15.98;9.20;;;;;;;2.06;nan;99896.03;5014139;28;20219;-74
2022/04/10 03:12:17;;;;;;;6.47;4.37;;;;;;;1.96;nan;99895.38;5002347;28;20526;-73
2022/04/10 03:14:43;;;;;;;6.40;4.77;;;;;;;1.88;nan;99894.72;5002066;28;20350;-73
2022/04/10 03:17:10;;;;;;;4.68;4.03;;;;;;;1.83;nan;99901.75;4986225;28;20227;-73
2022/04/10 03:19:39;;;;;;;7.97;5.27;;;;;;;1.70;nan;99903.78;5000241;28;20532;-71
2022/04/10 03:22:05;;;;;;;9.20;5.60;;;;;;;1.62;nan;99897.03;4998216;28;20479;-75
2022/04/10 03:24:31;;;;;;;7.57;4.60;;;;;;;1.55;nan;99899.78;5002390;28;20298;-74
2022/04/10 03:26:59;;;;;;;3.93;3.63;;;;;;;1.51;nan;99900.75;4999061;28;20586;-73
2022/04/10 03:29:28;;;;;;;4.95;3.80;;;;;;;1.46;nan;99901.72;5003291;28;20207;-73
2022/04/10 03:31:54;;;;;;;3.95;3.03;;;;;;;1.46;nan;99912.94;4986887;28;20885;-74
2022/04/10 03:34:20;;;;;;;3.40;3.10;;;;;;;1.48;nan;99913.72;4998049;28;20500;-72
2022/04/10 03:36:46;;;;;;;4.55;4.05;;;;;;;1.51;nan;99920.59;4986381;28;20226;-74
2022/04/10 03:39:11;;;;;;;4.33;3.53;;;;;;;1.53;nan;99924.84;5000312;28;20381;-72
2022/04/10 03:41:37;;;;;;;3.17;2.90;;;;;;;1.57;nan;99930.81;5000273;28;20225;-75
2022/04/10 03:44:03;;;;;;;3.50;3.20;;;;;;;1.60;nan;99928.16;5001914;28;20280;-74
2022/04/10 03:46:28;;;;;;;3.70;2.87;;;;;;;1.62;nan;99928.13;5001489;28;20361;-72
2022/04/10 03:48:56;;;;;;;3.22;2.92;;;;;;;1.62;nan;99928.13;5002271;28;20458;-73
2022/04/10 03:51:22;;;;;;;4.20;3.13;;;;;;;1.61;nan;99936.78;4995497;28;20242;-72
2022/04/10 03:53:47;;;;;;;5.83;3.27;;;;;;;1.58;nan;99939.44;5000283;28;20211;-74
2022/04/10 03:56:15;;;;;;;5.97;4.45;;;;;;;1.60;nan;99937.69;4984738;28;20234;-72
2022/04/10 03:58:41;;;;;;;4.10;3.47;;;;;;;1.60;nan;99945.44;4986538;28;20219;-73
2022/04/10 04:01:06;;;;;;;4.13;3.40;;;;;;;1.59;nan;99936.81;5000991;28;21061;-75
2022/04/10 04:03:31;;;;;;;4.00;3.33;;;;;;;1.59;nan;99946.31;4999321;28;20204;-72
2022/04/10 04:05:57;;;;;;;4.10;3.70;;;;;;;1.54;nan;99944.69;4999125;28;20490;-73
2022/04/10 04:08:23;;;;;;;4.10;3.63;;;;;;;1.53;nan;99942.13;4984654;28;20967;-72
2022/04/10 04:10:50;;;;;;;5.00;4.25;;;;;;;1.55;nan;99946.38;4996856;28;20663;-72
2022/04/10 04:13:17;;;;;;;5.18;3.60;;;;;;;1.52;nan;99943.88;4995018;28;21223;-75
2022/04/10 04:15:42;;;;;;;4.20;2.97;;;;;;;1.42;nan;99950.09;4983834;28;20728;-73
2022/04/10 04:18:08;;;;;;;5.10;3.10;;;;;;;1.32;nan;99946.88;5000942;28;20207;-75
2022/04/10 04:20:34;;;;;;;4.30;3.60;;;;;;;1.24;nan;99955.66;4997030;28;20230;-73
2022/04/10 04:23:01;;;;;;;3.20;2.85;;;;;;;1.13;nan;99965.38;5000328;28;20368;-74
2022/04/10 04:25:26;;;;;;;5.70;4.53;;;;;;;1.04;nan;99956.06;4986310;28;20219;-74
2022/04/10 04:27:54;;;;;;;5.40;4.57;;;;;;;0.99;nan;99968.22;4986169;28;20200;-73
2022/04/10 04:30:20;;;;;;;8.10;5.70;;;;;;;1.00;nan;99963.03;4986583;28;20766;-72
2022/04/10 04:32:47;;;;;;;10.85;6.65;;;;;;;1.03;nan;99975.91;5005000;28;20399;-75
2022/04/10 04:35:15;;;;;;;11.82;7.85;;;;;;;0.99;nan;99971.66;5011922;28;20314;-75
2022/04/10 04:37:40;;;;;;;9.55;7.40;;;;;;;0.98;nan;99972.53;5013294;28;20230;-73
2022/04/10 04:40:09;;;;;;;6.28;4.65;;;;;;;1.00;nan;99972.50;5005796;28;20262;-75
2022/04/10 04:42:36;;;;;;;8.75;3.92;;;;;;;0.99;nan;99971.66;4984021;28;20754;-73
2022/04/10 04:45:03;;;;;;;4.40;3.25;;;;;;;1.02;nan;99976.75;4994739;28;20227;-75
2022/04/10 04:47:28;;;;;;;7.55;3.95;;;;;;;1.02;nan;99984.53;5000672;28;20236;-74
2022/04/10 04:49:55;;;;;;;4.93;2.80;;;;;;;1.04;nan;99994.84;4995090;28;20204;-73
2022/04/10 04:52:21;;;;;;;6.05;3.95;;;;;;;1.06;nan;99999.13;4984133;28;20211;-75
2022/04/10 04:54:47;;;;;;;4.07;3.33;;;;;;;1.07;nan;100002.56;4996262;28;20231;-72
2022/04/10 04:57:13;;;;;;;4.40;2.90;;;;;;;1.08;nan;100001.66;5000138;28;20242;-72
2022/04/10 04:59:41;;;;;;;5.18;4.25;;;;;;;1.09;nan;99991.31;4977147;28;20530;-73
2022/04/10 05:02:08;;;;;;;6.33;3.87;;;;;;;1.09;nan;100006.81;4983357;28;20485;-73
2022/04/10 05:04:34;;;;;;;3.75;3.22;;;;;;;1.06;nan;99999.13;4985995;28;20648;-75
2022/04/10 05:06:59;;;;;;;3.20;2.77;;;;;;;1.01;nan;99995.75;4967815;28;20714;-73
2022/04/10 05:09:25;;;;;;;7.97;5.33;;;;;;;0.98;nan;100000.16;4997142;28;20461;-73
2022/04/10 05:11:50;;;;;;;5.63;4.67;;;;;;;0.94;nan;99996.75;4985949;28;20302;-72
2022/04/10 05:14:16;;;;;;;8.75;4.80;;;;;;;0.91;nan;100004.56;4996488;28;20207;-72
2022/04/10 05:16:42;;;;;;;8.90;4.20;;;;;;;0.87;nan;100008.94;4994231;28;20746;-72
2022/04/10 05:19:08;;;;;;;4.27;3.83;;;;;;;0.85;nan;100008.13;4999716;28;20652;-72
2022/04/10 05:21:34;;;;;;;5.82;3.83;;;;;;;0.87;nan;100008.09;4976988;28;20470;-74
2022/04/10 05:24:00;;;;;;;6.87;4.97;;;;;;;0.94;nan;100017.44;4983174;28;20226;-74
2022/04/10 05:26:26;;;;;;;4.63;4.00;;;;;;;1.02;nan;100010.41;4997937;28;20254;-74
2022/04/10 05:28:56;;;;;;;3.97;3.55;;;;;;;1.08;nan;100020.66;4985598;28;20486;-75
2022/04/10 05:31:21;;;;;;;3.63;3.10;;;;;;;1.12;nan;100013.69;4997375;28;20202;-73
2022/04/10 05:33:47;;;;;;;4.23;3.50;;;;;;;1.16;nan;100017.06;4983844;28;20219;-75
2022/04/10 05:36:15;;;;;;;5.22;3.20;;;;;;;1.24;nan;100022.94;4982919;28;20692;-75
2022/04/10 05:38:45;;;;;;;4.78;3.30;;;;;;;1.33;nan;100028.81;4997943;28;20666;-74
2022/04/10 05:41:13;;;;;;;5.45;4.10;;;;;;;1.42;nan;100030.34;4997603;28;20230;-74
2022/04/10 05:43:40;;;;;;;5.30;4.80;;;;;;;1.53;nan;100033.56;4995379;28;20207;-74
2022/04/10 05:46:06;;;;;;;11.60;6.53;;;;;;;1.65;nan;100037.69;4996355;28;20238;-74
2022/04/10 05:48:33;;;;;;;10.90;7.18;;;;;;;1.81;nan;100046.00;4997872;28;20301;-74
2022/04/10 05:50:59;;;;;;;5.17;3.90;;;;;;;1.94;nan;100042.22;4992698;28;20751;-74
2022/04/10 05:53:26;;;;;;;5.88;4.88;;;;;;;2.10;nan;100034.97;4994437;28;20207;-74
2022/04/10 05:55:52;;;;;;;10.20;5.80;;;;;;;2.26;nan;100045.00;4995329;28;20234;-74
2022/04/10 05:58:22;;;;;;;7.70;5.30;;;;;;;2.47;nan;100051.44;4999703;28;20257;-74
2022/04/10 06:00:48;;;;;;;4.80;4.00;;;;;;;2.72;nan;100049.97;4982707;28;20219;-74
2022/04/10 06:03:19;;;;;;;5.10;4.70;;;;;;;3.21;nan;100050.44;4998715;28;20470;-74
2022/04/10 06:05:49;;;;;;;10.25;8.23;;;;;;;3.82;nan;100053.97;4984005;28;20231;-76
2022/04/10 06:08:23;;;;;;;6.18;3.60;;;;;;;4.53;nan;100038.81;4996794;28;20673;-74
2022/04/10 06:10:49;;;;;;;7.80;3.10;;;;;;;5.17;nan;100039.28;4982564;28;20212;-74
2022/04/10 06:13:15;;;;;;;4.03;3.63;;;;;;;5.58;nan;100049.16;4994188;28;20587;-74
2022/04/10 06:15:54;;;;;;;5.82;3.90;;;;;;;5.84;nan;100045.63;4985480;28;20219;-74
2022/04/10 06:18:21;;;;;;;6.88;4.15;;;;;;;6.03;nan;100054.47;5002173;28;20203;-74
2022/04/10 06:20:46;;;;;;;5.17;3.77;;;;;;;6.10;nan;100048.13;4985546;28;20245;-74
2022/04/10 06:23:12;;;;;;;5.23;4.03;;;;;;;6.48;nan;100051.00;4985629;28;21156;-74
2022/04/10 06:25:40;;;;;;;5.63;4.45;;;;;;;6.97;nan;100045.53;4982416;28;20543;-74
2022/04/10 06:28:06;;;;;;;3.97;3.58;;;;;;;7.38;nan;100042.94;5000197;28;20571;-74
2022/04/10 06:30:38;;;;;;;3.72;3.42;;;;;;;7.69;nan;100045.03;4984858;28;20254;-74
2022/04/10 06:33:04;;;;;;;5.50;5.00;;;;;;;7.93;nan;100046.53;4996168;28;20480;-74
2022/04/10 06:35:30;;;;;;;4.18;3.65;;;;;;;7.97;nan;100045.47;4998089;28;20235;-74
2022/04/10 06:37:58;;;;;;;5.13;3.15;;;;;;;7.78;nan;100046.38;4997821;28;20214;-74
2022/04/10 06:40:24;;;;;;;3.70;3.35;;;;;;;7.53;nan;100050.06;4983968;28;20223;-74
2022/04/10 06:42:50;;;;;;;3.20;2.90;;;;;;;7.21;nan;100057.56;4999913;28;20231;-74
2022/04/10 06:45:50;;;;;;;4.40;3.70;;;;;;;6.77;nan;100057.63;4985890;28;20250;-74
2022/04/10 06:48:25;;;;;;;3.22;3.00;;;;;;;6.56;nan;100056.75;4996454;28;20210;-73
2022/04/10 06:50:51;;;;;;;4.73;3.00;;;;;;;6.34;nan;100055.88;4985403;28;20210;-74
2022/04/10 06:53:24;;;;;;;3.60;3.25;;;;;;;6.14;nan;100046.25;4997172;28;20216;-73
2022/04/10 06:55:51;;;;;;;4.28;3.40;;;;;;;6.03;nan;100041.44;4983649;28;20230;-74
2022/04/10 06:58:19;;;;;;;5.13;3.80;;;;;;;6.00;nan;100051.13;4997593;28;20210;-74
2022/04/10 07:00:45;;;;;;;4.05;3.75;;;;;;;5.97;nan;100058.16;4996258;28;20286;-74
2022/04/10 07:03:11;;;;;;;7.65;4.72;;;;;;;6.00;nan;100061.56;4993696;28;20506;-74
2022/04/10 07:05:44;;;;;;;5.07;4.67;;;;;;;6.01;nan;100058.88;5000354;28;20369;-74
2022/04/10 07:08:16;;;;;;;4.90;3.85;;;;;;;6.04;nan;100063.97;4983537;28;20210;-75
2022/04/10 07:10:42;;;;;;;4.93;4.07;;;;;;;6.06;nan;100058.72;4994850;28;20711;-75
2022/04/10 07:13:08;;;;;;;4.43;3.90;;;;;;;6.04;nan;100060.53;4983529;28;20350;-75
2022/04/10 07:15:34;;;;;;;7.30;5.25;;;;;;;5.89;nan;100054.13;4997219;28;20318;-75
2022/04/10 07:18:00;;;;;;;8.90;5.70;;;;;;;5.85;nan;100055.13;4998080;28;20598;-75
2022/04/10 07:20:27;;;;;;;6.20;4.70;;;;;;;5.93;nan;100051.34;4996849;28;20227;-75
2022/04/10 07:25:37;;;;;;;6.95;4.30;;;;;;;6.04;nan;100060.53;4982604;28;20234;-74
2022/04/10 07:28:03;;;;;;;4.60;4.20;;;;;;;6.20;nan;100061.66;4982947;28;20639;-74
2022/04/10 07:30:38;;;;;;;4.82;4.32;;;;;;;6.82;nan;100063.53;4984916;28;20414;-74
2022/04/10 07:33:09;;;;;;;5.65;4.45;;;;;;;7.49;nan;100048.53;4996335;28;20215;-74
2022/04/10 07:35:41;;;;;;;4.65;4.25;;;;;;;8.01;nan;100051.41;4996241;28;20815;-74
2022/04/10 07:38:11;;;;;;;4.90;4.60;;;;;;;8.83;nan;100043.16;4997888;28;20218;-75
2022/04/10 07:40:40;;;;;;;5.43;3.93;;;;;;;9.59;nan;100046.31;5001961;28;20222;-75
2022/04/10 07:43:10;;;;;;;6.25;3.65;;;;;;;10.13;nan;100041.66;4998844;28;20330;-74
2022/04/10 07:48:36;;;;;;;3.70;3.42;;;;;;;10.84;nan;100035.91;4987621;28;20496;-74
2022/04/10 07:51:02;;;;;;;3.60;3.30;;;;;;;11.44;nan;100035.00;4997369;28;20210;-74
2022/04/10 07:53:44;;;;;;;3.60;3.25;;;;;;;12.01;nan;100039.44;4998874;28;20456;-75
2022/04/10 07:56:09;;;;;;;3.17;2.87;;;;;;;12.01;nan;100036.81;4985652;28;20238;-74
2022/04/10 07:58:36;;;;;;;4.00;2.50;;;;;;;12.39;nan;100042.28;4998545;28;20211;-74
2022/04/10 08:01:09;;;;;;;3.25;2.88;;;;;;;12.83;nan;100045.63;4999052;28;20203;-75
2022/04/10 08:03:35;;;;;;;3.67;2.63;;;;;;;13.31;nan;100045.91;4995511;28;20485;-75
2022/04/10 08:06:19;;;;;;;3.50;2.67;;;;;;;13.81;nan;100048.69;5001970;28;20238;-74
2022/04/10 08:08:51;;;;;;;6.07;4.47;;;;;;;13.99;nan;100051.81;4987752;28;20203;-75
2022/04/10 08:11:16;;;;;;;3.10;2.30;;;;;;;14.15;nan;100052.44;4987488;28;20909;-74
2022/04/10 08:13:42;;;;;;;3.57;2.63;;;;;;;13.97;nan;100045.81;4988531;28;20250;-75
2022/04/10 08:16:07;;;;;;;3.33;2.50;;;;;;;14.03;nan;100048.00;4988405;28;20743;-74
2022/04/10 08:18:33;;;;;;;5.80;2.87;;;;;;;14.08;nan;100037.97;4988957;28;20703;-74
2022/04/10 08:20:58;;;;;;;5.40;2.73;;;;;;;14.10;nan;100050.09;4988891;28;20503;-74
2022/04/10 08:23:24;;;;;;;3.00;2.63;;;;;;;14.36;nan;100052.66;4987784;28;20688;-75
2022/04/10 08:25:49;;;;;;;2.63;2.43;;;;;;;14.59;nan;100056.31;4989413;28;20255;-74
2022/04/10 08:28:14;;;;;;;5.43;3.93;;;;;;;14.72;nan;100064.22;4986640;28;20214;-74
2022/04/10 08:30:40;;;;;;;2.60;2.40;;;;;;;14.73;nan;100063.25;4987458;28;20202;-74
2022/04/10 08:33:08;;;;;;;4.03;2.77;;;;;;;14.28;nan;100063.78;4987581;28;20240;-74
2022/04/10 08:35:34;;;;;;;3.72;3.30;;;;;;;14.33;nan;100066.94;4987023;28;20814;-74
2022/04/10 08:38:00;;;;;;;2.95;2.65;;;;;;;14.64;nan;100069.22;4987354;28;20237;-74
2022/04/10 08:40:25;;;;;;;5.40;3.87;;;;;;;14.57;nan;100071.44;4986795;28;20346;-74
2022/04/10 08:42:53;;;;;;;5.13;3.00;;;;;;;14.29;nan;100065.50;4986736;28;20234;-74
2022/04/10 08:45:24;;;;;;;3.80;3.25;;;;;;;14.25;nan;100063.16;4998301;28;20698;-74
2022/04/10 08:47:50;;;;;;;3.22;2.97;;;;;;;14.13;nan;100067.53;4986950;28;20676;-74
2022/04/10 08:50:17;;;;;;;2.07;1.97;;;;;;;14.05;nan;100067.25;4986015;28;20289;-73
2022/04/10 08:52:43;;;;;;;3.90;2.78;;;;;;;14.05;nan;100081.28;4986054;28;20214;-73
2022/04/10 08:55:10;;;;;;;3.20;2.80;;;;;;;14.06;nan;100072.41;4986287;28;20249;-73
2022/04/10 08:57:35;;;;;;;3.42;3.13;;;;;;;13.94;nan;100076.75;5000230;28;20206;-73
2022/04/10 09:00:00;;;;;;;2.93;2.70;;;;;;;13.86;nan;100078.25;4984651;28;20946;-75
2022/04/10 09:02:26;;;;;;;3.87;3.40;;;;;;;13.86;nan;100073.81;4984235;28;20686;-74
2022/04/10 09:04:52;;;;;;;3.00;2.80;;;;;;;13.79;nan;100074.34;4984339;28;20226;-74
2022/04/10 09:07:18;;;;;;;3.17;2.40;;;;;;;13.74;nan;100069.38;4984924;28;20606;-73
2022/04/10 09:09:53;;;;;;;3.20;2.67;;;;;;;13.73;nan;100068.53;4984720;28;20458;-73
2022/04/10 09:12:19;;;;;;;4.32;2.95;;;;;;;13.62;nan;100070.22;4984945;28;20211;-73
2022/04/10 09:14:44;;;;;;;3.27;3.00;;;;;;;13.28;nan;100077.78;4984832;28;20234;-73
2022/04/10 09:17:29;;;;;;;3.20;2.90;;;;;;;13.12;nan;100079.72;4984327;28;20206;-73
2022/04/10 09:19:56;;;;;;;3.70;3.40;;;;;;;13.16;nan;100075.97;4985317;28;20768;-73
2022/04/10 09:22:25;;;;;;;2.22;2.03;;;;;;;13.33;nan;100065.13;4985703;28;20495;-73
2022/04/10 09:25:14;;;;;;;3.17;2.88;;;;;;;13.27;nan;100070.84;4986689;28;20684;-73
2022/04/10 09:27:44;;;;;;;3.95;2.88;;;;;;;13.18;nan;100072.28;4986446;28;20455;-73
2022/04/10 09:30:11;;;;;;;3.03;2.83;;;;;;;13.13;nan;100068.25;4986757;28;20545;-73
2022/04/10 09:32:48;;;;;;;3.42;3.22;;;;;;;13.07;nan;100069.50;4985265;28;20199;-73
2022/04/10 09:35:16;;;;;;;4.28;3.05;;;;;;;13.14;nan;100068.13;4982748;28;20617;-73
2022/04/10 09:37:49;;;;;;;3.45;2.30;;;;;;;12.69;nan;100075.53;4982332;28;20697;-74
2022/04/10 09:40:23;;;;;;;3.55;1.95;;;;;;;12.17;nan;100063.03;4981978;28;20239;-73
2022/04/10 09:43:10;;;;;;;2.97;2.67;;;;;;;11.88;nan;100064.84;4995075;28;20222;-74
2022/04/10 09:45:38;;;;;;;5.72;2.70;;;;;;;11.90;nan;100070.84;4995791;28;20262;-74
2022/04/10 09:48:29;;;;;;;3.15;2.50;;;;;;;11.76;nan;100065.56;4982550;28;20247;-73
2022/04/10 09:51:00;;;;;;;4.20;3.60;;;;;;;11.60;nan;100066.50;4984134;28;20951;-74
2022/04/10 09:53:26;;;;;;;4.80;2.65;;;;;;;11.57;nan;100060.59;4997946;28;20294;-75
2022/04/10 09:55:54;;;;;;;2.78;2.50;;;;;;;11.49;nan;100066.28;4985845;28;20226;-75
2022/04/10 09:58:20;;;;;;;3.50;2.58;;;;;;;11.43;nan;100064.03;4984428;28;20207;-75
2022/04/10 10:00:47;;;;;;;3.77;2.70;;;;;;;11.58;nan;100067.53;4984733;28;20250;-74
2022/04/10 10:03:13;;;;;;;4.10;3.20;;;;;;;11.97;nan;100056.38;4983603;28;21223;-74
2022/04/10 10:05:39;;;;;;;4.63;2.55;;;;;;;12.31;nan;100052.47;4987643;28;20326;-74
2022/04/10 10:08:06;;;;;;;5.07;2.20;;;;;;;12.60;nan;100050.59;4984747;28;20207;-74
2022/04/10 10:10:36;;;;;;;3.25;1.95;;;;;;;12.44;nan;100044.63;4983890;28;20843;-73
2022/04/10 10:13:06;;;;;;;2.92;2.22;;;;;;;12.50;nan;100036.34;5001222;28;20207;-73
2022/04/10 10:15:36;;;;;;;3.22;1.98;;;;;;;12.48;nan;100040.84;4989979;28;20830;-74
2022/04/10 10:18:06;;;;;;;2.17;1.98;;;;;;;12.39;nan;100041.44;4987275;28;20211;-74
2022/04/10 10:20:33;;;;;;;2.75;2.55;;;;;;;12.17;nan;100037.53;4985123;28;20238;-74
2022/04/10 10:23:03;;;;;;;2.35;2.03;;;;;;;12.09;nan;100050.34;4988303;28;20215;-74
2022/04/10 10:25:47;;;;;;;5.47;3.40;;;;;;;12.02;nan;100040.31;4983070;28;20301;-74
2022/04/10 10:28:40;;;;;;;9.65;2.60;;;;;;;11.90;nan;100036.63;4984640;28;21020;-74
2022/04/10 10:31:22;;;;;;;2.65;2.45;;;;;;;11.93;nan;100033.81;4985177;28;20218;-74
2022/04/10 10:34:09;;;;;;;3.03;2.70;;;;;;;11.97;nan;100026.59;4982500;28;20683;-73
2022/04/10 10:36:35;;;;;;;2.45;2.25;;;;;;;11.97;nan;100024.78;4981907;28;20275;-74
2022/04/10 10:39:04;;;;;;;2.00;1.90;;;;;;;12.03;nan;100023.56;4981099;28;20723;-74
2022/04/10 10:41:32;;;;;;;3.78;2.30;;;;;;;12.15;nan;100022.75;4980490;28;20215;-74
2022/04/10 10:43:59;;;;;;;2.75;2.45;;;;;;;12.17;nan;100024.34;4981063;28;20203;-75
2022/04/10 10:46:32;;;;;;;2.40;2.17;;;;;;;12.34;nan;100022.44;4983428;28;20609;-74
2022/04/10 10:49:14;;;;;;;2.20;2.00;;;;;;;12.44;nan;100020.06;4981535;28;20234;-73
2022/04/10 10:51:43;;;;;;;2.85;2.15;;;;;;;12.67;nan;100013.31;4981542;28;20703;-74
2022/04/10 10:54:11;;;;;;;3.20;2.35;;;;;;;12.71;nan;100012.13;4981731;28;20215;-74
2022/04/10 10:56:39;;;;;;;5.15;3.05;;;;;;;12.71;nan;100010.34;4982222;28;20765;-74
2022/04/10 10:59:26;;;;;;;4.32;2.08;;;;;;;12.80;nan;100003.66;4980803;28;20242;-73
2022/04/10 11:02:01;;;;;;;3.10;2.00;;;;;;;12.70;nan;100006.03;4980629;28;20200;-74
2022/04/10 11:04:28;;;;;;;3.28;2.53;;;;;;;12.55;nan;99993.84;4980861;28;20296;-73
2022/04/10 11:06:54;;;;;;;2.00;1.80;;;;;;;12.53;nan;100007.16;4981185;28;20238;-73
2022/04/10 11:09:31;;;;;;;1.77;1.67;;;;;;;12.57;nan;99992.81;4980628;28;20337;-73
2022/04/10 11:11:59;;;;;;;2.08;1.70;;;;;;;12.66;nan;99998.41;4980644;28;20261;-73
2022/04/10 11:14:35;;;;;;;2.25;1.73;;;;;;;12.78;nan;99997.63;4979207;28;20414;-73
2022/04/10 11:17:21;;;;;;;3.70;1.73;;;;;;;12.88;nan;100006.63;4979520;28;20726;-73
2022/04/10 11:19:52;;;;;;;2.50;1.85;;;;;;;12.97;nan;99995.44;4979859;28;20230;-73
2022/04/10 11:22:44;;;;;;;1.90;1.60;;;;;;;12.98;nan;99996.28;4980971;28;20219;-77
2022/04/10 11:25:10;;;;;;;1.50;1.23;;;;;;;12.94;nan;99990.38;4991489;28;20222;-73
2022/04/10 11:27:41;;;;;;;3.22;1.67;;;;;;;12.82;nan;99994.66;4995885;28;20249;-73
2022/04/10 11:30:08;;;;;;;3.45;1.70;;;;;;;12.79;nan;99988.75;4996563;28;20229;-73
2022/04/10 11:32:50;;;;;;;1.40;1.30;;;;;;;12.79;nan;99986.13;4995654;28;20494;-73
2022/04/10 11:35:27;;;;;;;2.25;1.42;;;;;;;12.90;nan;99980.97;4995679;28;20537;-73
2022/04/10 11:37:55;;;;;;;2.28;1.20;;;;;;;13.10;nan;99981.44;4995625;28;20214;-73
2022/04/10 11:40:26;;;;;;;1.00;0.90;;;;;;;13.19;nan;99975.53;4994846;28;20234;-73
2022/04/10 11:42:53;;;;;;;3.35;1.75;;;;;;;13.24;nan;99971.63;4996046;28;20230;-73
2022/04/10 11:45:19;;;;;;;2.05;1.42;;;;;;;13.31;nan;99972.03;4997027;28;20461;-73
2022/04/10 11:47:44;;;;;;;1.30;1.20;;;;;;;13.22;nan;99976.13;4998235;28;20751;-73
2022/04/10 11:50:13;;;;;;;1.93;1.70;;;;;;;13.22;nan;99972.66;4996151;28;20214;-73
2022/04/10 11:52:41;;;;;;;1.50;1.38;;;;;;;13.23;nan;99971.69;4995839;28;20306;-73
2022/04/10 11:55:08;;;;;;;1.30;1.17;;;;;;;13.15;nan;99971.38;4994766;28;20297;-73
2022/04/10 11:57:38;;;;;;;1.90;1.38;;;;;;;12.94;nan;99974.56;4992209;28;20206;-73
2022/04/10 12:00:09;;;;;;;1.80;1.35;;;;;;;12.89;nan;99962.63;4991646;28;20218;-73
2022/04/10 12:02:36;;;;;;;1.65;1.10;;;;;;;12.69;nan;99963.94;4993998;28;20203;-73